Home > Products > Valid Products > TAF

000
FTUS43 KBIS 051730
TAFJMS
TAF
KJMS 051730Z 0518/0618 36014KT P6SM VCTS SCT025 BKN050CB
      TEMPO 0518/0519 BKN025 OVC050CB
     FM052100 35015KT P6SM VCTS BKN035CB OVC050
     FM060100 36010KT P6SM BKN050
     FM061400 35015KT P6SM BKN070=



000
FTUS43 KBIS 051730
TAFMOT
TAF
KMOT 051730Z 0518/0618 35008KT 4SM FU BKN015
     FM051900 34015KT 5SM FU BKN025
     FM052000 33013KT P6SM BKN040
     FM060300 30007KT P6SM SCT050
     FM061500 32010KT P6SM SCT015 BKN040=



000
FTUS43 KBIS 051730
TAFDIK
TAF
KDIK 051730Z 0518/0618 34015KT P6SM SCT020 BKN100
     FM052100 36014KT P6SM VCSH BKN070
     FM060200 34007KT P6SM BKN070
     FM061500 33010KT P6SM BKN100=



000
FTUS43 KBIS 051730
TAFISN
TAF
KISN 051730Z 0518/0618 36017G23KT 3SM FU BKN035
      TEMPO 0518/0520 2SM FU BKN025
     FM060100 34008KT P6SM BKN070
     FM061000 32005KT P6SM BKN035 OVC080=



000
FTUS43 KBIS 051730
TAFBIS
TAF
KBIS 051730Z 0518/0618 36014KT P6SM SCT015 OVC140
     FM060200 36006KT P6SM SCT035 BKN070
     FM061500 34005KT P6SM SCT070 BKN150=



000
FTUS43 KBIS 051612 AAB
TAFISN
TAF AMD
KISN 051612Z 0516/0612 36019G29KT 5SM FU SCT050
      TEMPO 0516/0518 2SM FU BKN050
     FM060000 35009KT P6SM SCT030 SCT070
     FM060900 32007KT P6SM BKN035 OVC080=



000
FTUS43 KBIS 051609 AAE
TAFBIS
TAF AMD
KBIS 051609Z 0516/0612 03010KT P6SM SCT015 BKN120
      TEMPO 0516/0518 -SHRA BKN020 OVC120
     FM051800 01015KT P6SM BKN035 OVC070
     FM060200 36009KT P6SM BKN035 OVC070
     FM060900 33005KT P6SM SCT070=



000
FTUS43 KBIS 051606 AAD
TAFMOT
TAF AMD
KMOT 051606Z 0516/0612 01008KT 5SM BR BKN006
     FM051700 36011KT 6SM HZ BKN012
     FM051900 01015KT P6SM BKN035 BKN070
     FM060100 33007KT P6SM SCT070=



000
FTUS43 KBIS 051517 AAD
TAFBIS
TAF AMD
KBIS 051517Z 0515/0612 36012G21KT P6SM VCTS SCT024 BKN035CB
     FM051600 36014KT P6SM -TSRA SCT020 BKN040CB OVC100
      TEMPO 0516/0518 VRB20G35KT 2SM +TSRA BKN020 OVC040CB
     FM051800 01015KT P6SM -SHRA SCT025 BKN035 OVC070
     FM060200 36009KT P6SM BKN035 OVC070
     FM060900 33005KT P6SM SCT070=



000
FTUS43 KBIS 051517 AAD
TAFBIS
TAF AMD
KBIS 051517Z 0515/0612 36012G21KT P6SM VCTS SCT024 BKN035CB
     FM051600 36014KT P6SM -TSRA SCT020 BKN040CB OVC100
      TEMPO 0516/0518 VRB20G35KT 2SM +TSRA BKN020 OVC040CB
     FM051800 01015KT P6SM -SHRA SCT025 BKN035 OVC070
     FM060200 36009KT P6SM BKN035 OVC070
     FM060900 33005KT P6SM SCT070=



000
FTUS43 KBIS 051441 AAC
TAFMOT
TAF AMD
KMOT 051441Z 0515/0612 01007KT 4SM -RA BR BKN006 BKN110
     FM051600 01010KT 6SM HZ SCT015 BKN100
     FM051900 01015KT P6SM SCT035 BKN070
     FM060100 33007KT P6SM SCT070=



000
FTUS43 KBIS 051441 AAC
TAFMOT
TAF AMD
KMOT 051441Z 0515/0612 01007KT 4SM -RA BR BKN006 BKN110
     FM051600 01010KT 6SM HZ SCT015 BKN100
     FM051900 01015KT P6SM SCT035 BKN070
     FM060100 33007KT P6SM SCT070=



000
FTUS43 KBIS 051406 AAB
TAFMOT
TAF AMD
KMOT 051406Z 0514/0612 01007KT P6SM VCSH BKN110
      TEMPO 0514/0515 4SM -SHRA BR OVC100
     FM051900 01015KT P6SM SCT035 BKN070
     FM060100 33007KT P6SM SCT070=



000
FTUS43 KBIS 051406 AAB
TAFMOT
TAF AMD
KMOT 051406Z 0514/0612 01007KT P6SM VCSH BKN110
      TEMPO 0514/0515 4SM -SHRA BR OVC100
     FM051900 01015KT P6SM SCT035 BKN070
     FM060100 33007KT P6SM SCT070=



000
FTUS43 KBIS 051312 AAA
TAFDIK
TAF AMD
KDIK 051312Z 0513/0612 01015G25KT P6SM SCT060 BKN110
      TEMPO 0513/0515 -TSRA SCT025 BKN035CB OVC070
     FM051500 01016KT P6SM -SHRA VCTS SCT025 BKN035CB OVC070
     FM052100 01014KT P6SM VCTS BKN040CB BKN070
     FM060200 35008KT P6SM BKN070=



000
FTUS43 KBIS 051310 AAA
TAFISN
TAF AMD
KISN 051310Z 0513/0612 35008KT 3SM BR VCSH SCT100 BKN150
      TEMPO 0513/0515 5SM SHRA BKN050 OVC100
     FM051500 01015KT P6SM VCTS SCT040CB BKN080
     FM060000 35009KT P6SM SCT030 SCT070
     FM060900 32007KT P6SM BKN035 OVC080=



000
FTUS43 KBIS 051310 AAA
TAFISN
TAF AMD
KISN 051310Z 0513/0612 35008KT 3SM BR VCSH SCT100 BKN150
      TEMPO 0513/0515 5SM SHRA BKN050 OVC100
     FM051500 01015KT P6SM VCTS SCT040CB BKN080
     FM060000 35009KT P6SM SCT030 SCT070
     FM060900 32007KT P6SM BKN035 OVC080=



000
FTUS43 KBIS 051305 AAB
TAFBIS
TAF AMD
KBIS 051305Z 0513/0612 30006KT 6SM BR VCTS BKN009 OVC060CB
      TEMPO 0513/0515 VRB20G30KT 2SM +TSRA BKN020 OVC040CB
     FM051700 01015KT P6SM -SHRA VCTS SCT025 BKN035CB OVC070
     FM060200 36009KT P6SM BKN035 OVC070
     FM060900 33005KT P6SM SCT070=



000
FTUS43 KBIS 051305 AAB
TAFBIS
TAF AMD
KBIS 051305Z 0513/0612 30006KT 6SM BR VCTS BKN009 OVC060CB
      TEMPO 0513/0515 VRB20G30KT 2SM +TSRA BKN020 OVC040CB
     FM051700 01015KT P6SM -SHRA VCTS SCT025 BKN035CB OVC070
     FM060200 36009KT P6SM BKN035 OVC070
     FM060900 33005KT P6SM SCT070=



000
FTUS43 KBIS 051244 AAA
TAFMOT
TAF AMD
KMOT 051244Z 0513/0612 35010KT P6SM -TSRA SCT025 BKN035 BKN060CB
      TEMPO 0513/0515 VRB20G30KT 1 1/2SM +TSRA BKN015 OVC035CB
     FM051900 01015KT P6SM SCT035 BKN070
     FM060100 33007KT P6SM SCT070=



000
FTUS43 KBIS 051129
TAFMOT
TAF
KMOT 051129Z 0512/0612 35010KT P6SM -SHRA VCTS SCT025 BKN035
      BKN060CB
      TEMPO 0513/0515 4SM TSRA BKN025 OVC035CB
     FM051900 01015KT P6SM SCT035 BKN070
     FM060100 33007KT P6SM SCT070=



000
FTUS43 KBIS 051129
TAFBIS
TAF
KBIS 051129Z 0512/0612 VRB05KT P6SM SCT150 BKN250
      TEMPO 0512/0513 4SM BR
     FM051300 34015KT P6SM -TSRA SCT025 SCT060CB BKN150
     FM051700 01015KT P6SM -SHRA VCTS SCT025 BKN035CB OVC070
     FM060200 36009KT P6SM BKN035 OVC070
     FM060900 33005KT P6SM SCT070=



000
FTUS43 KBIS 051129
TAFDIK
TAF
KDIK 051129Z 0512/0612 03010KT P6SM -TSRA SCT025 SCT035CB BKN070
      TEMPO 0512/0515 VRB15G25KT 2SM +TSRA SCT025 BKN035CB OVC070
     FM051500 01016KT P6SM -SHRA VCTS SCT025 BKN035CB OVC070
     FM052100 01014KT P6SM VCTS BKN040CB BKN070
     FM060200 35008KT P6SM BKN070=



000
FTUS43 KBIS 051129
TAFISN
TAF
KISN 051129Z 0512/0612 02012KT P6SM -TSRA SCT035 BKN045CB BKN070
      TEMPO 0512/0515 VRB15G25KT 2SM +TSRA SCT025 BKN035CB OVC050
     FM051500 01015KT P6SM VCTS SCT040CB BKN080
     FM060000 35009KT P6SM SCT030 SCT070
     FM060900 32007KT P6SM BKN035 OVC080=



000
FTUS43 KBIS 051129
TAFJMS
TAF
KJMS 051129Z 0512/0612 16006KT P6SM SCT150
     FM051500 VRB05KT P6SM SCT100 BKN150
     FM051700 01012KT P6SM VCTS SCT030 BKN050CB BKN100
     FM052000 01015KT P6SM -SHRA VCTS SCT025 BKN035CB OVC050
     FM060300 36012KT P6SM BKN035 OVC050
     FM060700 35007KT P6SM BKN070=



000
FTUS43 KBIS 051129
TAFJMS
TAF
KJMS 051129Z 0512/0612 16006KT P6SM SCT150
     FM051500 VRB05KT P6SM SCT100 BKN150
     FM051700 01012KT P6SM VCTS SCT030 BKN050CB BKN100
     FM052000 01015KT P6SM -SHRA VCTS SCT025 BKN035CB OVC050
     FM060300 36012KT P6SM BKN035 OVC050
     FM060700 35007KT P6SM BKN070=



000
FTUS43 KBIS 051129
TAFISN
TAF
KISN 051129Z 0512/0612 02012KT P6SM -TSRA SCT035 BKN045CB BKN070
      TEMPO 0512/0515 VRB15G25KT 2SM +TSRA SCT025 BKN035CB OVC050
     FM051500 01015KT P6SM VCTS SCT040CB BKN080
     FM060000 35009KT P6SM SCT030 SCT070
     FM060900 32007KT P6SM BKN035 OVC080=



000
FTUS43 KBIS 051129
TAFBIS
TAF
KBIS 051129Z 0512/0612 VRB05KT P6SM SCT150 BKN250
      TEMPO 0512/0513 4SM BR
     FM051300 34015KT P6SM -TSRA SCT025 SCT060CB BKN150
     FM051700 01015KT P6SM -SHRA VCTS SCT025 BKN035CB OVC070
     FM060200 36009KT P6SM BKN035 OVC070
     FM060900 33005KT P6SM SCT070=



000
FTUS43 KBIS 051129
TAFMOT
TAF
KMOT 051129Z 0512/0612 35010KT P6SM -SHRA VCTS SCT025 BKN035
      BKN060CB
      TEMPO 0513/0515 4SM TSRA BKN025 OVC035CB
     FM051900 01015KT P6SM SCT035 BKN070
     FM060100 33007KT P6SM SCT070=



000
FTUS43 KBIS 051129
TAFDIK
TAF
KDIK 051129Z 0512/0612 03010KT P6SM -TSRA SCT025 SCT035CB BKN070
      TEMPO 0512/0515 VRB15G25KT 2SM +TSRA SCT025 BKN035CB OVC070
     FM051500 01016KT P6SM -SHRA VCTS SCT025 BKN035CB OVC070
     FM052100 01014KT P6SM VCTS BKN040CB BKN070
     FM060200 35008KT P6SM BKN070=



000
FTUS43 KBIS 050926 AAA
TAFDIK
TAF AMD
KDIK 050926Z 0509/0606 VRB05KT 5SM BR SCT100
     FM051100 03010KT P6SM -SHRA VCTS SCT025 SCT035CB BKN070
      TEMPO 0511/0514 VRB15G25KT 2SM +TSRA SCT025 BKN035CB OVC070
     FM051500 01016KT P6SM -SHRA VCTS SCT025 BKN035CB OVC070
     FM052100 01014KT P6SM VCSH BKN040 BKN070
     FM060200 35008KT P6SM BKN070=



000
FTUS43 KBIS 050859 AAB
TAFISN
TAF AMD
KISN 050859Z 0509/0606 02012KT P6SM -TSRA SCT035 BKN045CB BKN070
      TEMPO 0510/0514 VRB15G25KT 2SM +TSRA SCT025 BKN035CB OVC050
     FM051500 01015KT P6SM VCTS SCT040CB BKN080
     FM060000 35008KT P6SM SCT030 SCT070=



000
FTUS43 KBIS 050758 AAA
TAFMOT
TAF AMD
KMOT 050758Z 0508/0606 36006KT 4SM BR SCT050
     FM051300 35013KT P6SM -SHRA VCTS SCT025 BKN035 BKN060CB
     FM051900 01015KT P6SM SCT035 BKN070
     FM060100 33007KT P6SM SCT070=



000
FTUS43 KBIS 050758 AAA
TAFMOT
TAF AMD
KMOT 050758Z 0508/0606 36006KT 4SM BR SCT050
     FM051300 35013KT P6SM -SHRA VCTS SCT025 BKN035 BKN060CB
     FM051900 01015KT P6SM SCT035 BKN070
     FM060100 33007KT P6SM SCT070=



000
FTUS43 KBIS 050757 AAA
TAFISN
TAF AMD
KISN 050757Z 0508/0606 02010KT P6SM SCT100
     FM050900 02012KT P6SM -SHRA VCTS SCT025 BKN035CB OVC100
     FM051500 01015KT P6SM VCSH SCT040 BKN080
     FM060000 35008KT P6SM SCT030 SCT070=



000
FTUS43 KBIS 050755 AAA
TAFJMS
TAF AMD
KJMS 050755Z 0508/0606 18008KT P6SM SCT100
     FM051100 VRB05KT P6SM SCT060 SCT100
     FM051700 01012KT P6SM VCTS SCT030 BKN050CB BKN100
     FM052000 01015KT P6SM -SHRA VCTS SCT025 BKN035CB OVC050
     FM060300 36012KT P6SM BKN035 OVC050=



000
FTUS43 KBIS 050528
TAFBIS
TAF
KBIS 050528Z 0506/0606 VRB05KT P6SM SCT100 SCT150
     FM051100 01006KT P6SM SCT080 BKN150
     FM051400 34015KT P6SM VCTS SCT025 BKN060CB
     FM051700 01015KT P6SM -SHRA VCTS SCT025 BKN035CB OVC070
     FM060200 36009KT P6SM BKN035 OVC070=



000
FTUS43 KBIS 050528
TAFISN
TAF
KISN 050528Z 0506/0606 02014KT P6SM SCT100
     FM050900 02012KT P6SM VCTS SCT025 BKN035CB OVC100
     FM051500 01015KT P6SM VCSH SCT040 BKN080
     FM060000 35008KT P6SM SCT030 SCT070=



000
FTUS43 KBIS 050528
TAFJMS
TAF
KJMS 050528Z 0506/0606 18008KT P6SM VCTS SCT050CB SCT100
     FM051100 VRB05KT P6SM SCT060 SCT100
     FM051700 01012KT P6SM VCTS SCT030 BKN050CB BKN100
     FM052000 01015KT P6SM -SHRA VCTS SCT025 BKN035CB OVC050
     FM060300 36012KT P6SM BKN035 OVC050=



000
FTUS43 KBIS 050528
TAFMOT
TAF
KMOT 050528Z 0506/0606 01012KT P6SM SCT090
     FM051300 35013KT P6SM -SHRA VCTS SCT025 BKN035 BKN060CB
     FM051900 01015KT P6SM SCT035 BKN070
     FM060100 33007KT P6SM SCT070=



000
FTUS43 KBIS 050528
TAFDIK
TAF
KDIK 050528Z 0506/0606 VRB05KT 5SM BR SCT100
     FM050900 02006KT P6SM SCT070
     FM051100 03010KT P6SM VCTS SCT025 SCT035CB BKN070
     FM051500 01016KT P6SM -SHRA VCTS SCT025 BKN035CB OVC070
     FM052100 01014KT P6SM VCSH BKN040 BKN070
     FM060200 35008KT P6SM BKN070=



000
FTUS43 KBIS 050528
TAFISN
TAF
KISN 050528Z 0506/0606 02014KT P6SM SCT100
     FM050900 02012KT P6SM VCTS SCT025 BKN035CB OVC100
     FM051500 01015KT P6SM VCSH SCT040 BKN080
     FM060000 35008KT P6SM SCT030 SCT070=



000
FTUS43 KBIS 050528
TAFJMS
TAF
KJMS 050528Z 0506/0606 18008KT P6SM VCTS SCT050CB SCT100
     FM051100 VRB05KT P6SM SCT060 SCT100
     FM051700 01012KT P6SM VCTS SCT030 BKN050CB BKN100
     FM052000 01015KT P6SM -SHRA VCTS SCT025 BKN035CB OVC050
     FM060300 36012KT P6SM BKN035 OVC050=



000
FTUS43 KBIS 050528
TAFBIS
TAF
KBIS 050528Z 0506/0606 VRB05KT P6SM SCT100 SCT150
     FM051100 01006KT P6SM SCT080 BKN150
     FM051400 34015KT P6SM VCTS SCT025 BKN060CB
     FM051700 01015KT P6SM -SHRA VCTS SCT025 BKN035CB OVC070
     FM060200 36009KT P6SM BKN035 OVC070=



000
FTUS43 KBIS 050528
TAFMOT
TAF
KMOT 050528Z 0506/0606 01012KT P6SM SCT090
     FM051300 35013KT P6SM -SHRA VCTS SCT025 BKN035 BKN060CB
     FM051900 01015KT P6SM SCT035 BKN070
     FM060100 33007KT P6SM SCT070=



000
FTUS43 KBIS 050528
TAFDIK
TAF
KDIK 050528Z 0506/0606 VRB05KT 5SM BR SCT100
     FM050900 02006KT P6SM SCT070
     FM051100 03010KT P6SM VCTS SCT025 SCT035CB BKN070
     FM051500 01016KT P6SM -SHRA VCTS SCT025 BKN035CB OVC070
     FM052100 01014KT P6SM VCSH BKN040 BKN070
     FM060200 35008KT P6SM BKN070=



000
FTUS43 KBIS 050313 AAD
TAFJMS
TAF AMD
KJMS 050313Z 0503/0524 18010KT P6SM SCT035 BKN100
     FM050500 18008KT P6SM VCTS SCT050CB BKN100
     FM051500 31012KT P6SM VCTS SCT030 SCT060 BKN100CB=



000
FTUS43 KBIS 050309 AAB
TAFBIS
TAF AMD
KBIS 050309Z 0503/0524 15005KT P6SM SCT100 SCT150
     FM050500 VRB05KT P6SM VCTS SCT050CB BKN120
     FM050800 36010KT P6SM SCT080 SCT120
     FM051400 34015KT P6SM -SHRA VCTS SCT025 OVC070CB=



000
FTUS43 KBIS 050302 AAA
TAFMOT
TAF AMD
KMOT 050302Z 0503/0524 36012KT P6SM -TSRA BKN050CB OVC100
      TEMPO 0503/0504 3SM +TSRA SCT025 BKN035CB OVC050
     FM050400 03012KT P6SM SCT015 SCT100
     FM051300 35013KT P6SM -SHRA VCTS SCT035 BKN060CB
     FM052000 34012KT P6SM SCT060=



000
FTUS43 KBIS 050302 AAA
TAFMOT
TAF AMD
KMOT 050302Z 0503/0524 36012KT P6SM -TSRA BKN050CB OVC100
      TEMPO 0503/0504 3SM +TSRA SCT025 BKN035CB OVC050
     FM050400 03012KT P6SM SCT015 SCT100
     FM051300 35013KT P6SM -SHRA VCTS SCT035 BKN060CB
     FM052000 34012KT P6SM SCT060=



000
FTUS43 KBIS 050258 AAA
TAFDIK
TAF AMD
KDIK 050258Z 0503/0524 25008KT P6SM SCT100
     FM050500 02010KT P6SM SCT100
     FM051000 03010KT P6SM VCTS SCT025 BKN035CB OVC080
     FM051400 01015KT P6SM -SHRA VCTS SCT035 BKN060CB=



000
FTUS43 KBIS 050253 AAA
TAFISN
TAF AMD
KISN 050253Z 0503/0524 03011KT P6SM SCT100
     FM050900 02012KT P6SM VCTS SCT025 BKN035CB OVC100
     FM051500 36015KT P6SM VCSH SCT040 BKN080=



000
FTUS43 KBIS 050253 AAA
TAFISN
TAF AMD
KISN 050253Z 0503/0524 03011KT P6SM SCT100
     FM050900 02012KT P6SM VCTS SCT025 BKN035CB OVC100
     FM051500 36015KT P6SM VCSH SCT040 BKN080=



000
FTUS43 KBIS 050122 AAC
TAFJMS
TAF AMD
KJMS 050122Z 0501/0524 VRB20G30KT 1/2SM +TSRA BKN025 BKN045CB
     FM050200 19006KT P6SM SCT035 BKN100
     FM051500 31012KT P6SM VCTS SCT060 BKN100CB=



000
FTUS43 KBIS 050120 AAB
TAFJMS
TAF AMD
KJMS 050120Z 0501/0524 19010KT 1/2SM +TSRA BKN025 BKN045CB
     FM050200 19006KT P6SM SCT035 BKN100
     FM051500 31012KT P6SM VCTS SCT060 BKN100CB=



000
FTUS43 KBIS 050041 AAA
TAFJMS
TAF AMD
KJMS 050041Z 0501/0524 19010KT 2SM TSRA SCT035 BKN045CB
     FM050200 19006KT P6SM SCT035 BKN100
     FM051500 31012KT P6SM VCTS SCT060 BKN100CB=



000
FTUS43 KBIS 042325
TAFBIS
TAF
KBIS 042325Z 0500/0524 18010KT P6SM SCT050
     FM050200 18009KT P6SM VCTS SCT050CB BKN120
     FM050600 31008KT P6SM BKN120
     FM051400 34015KT P6SM -SHRA VCTS SCT025 OVC070CB=



000
FTUS43 KBIS 042325
TAFDIK
TAF
KDIK 042325Z 0500/0524 20009KT P6SM SCT100
      TEMPO 0500/0502 -TSRA SCT060CB BKN100
     FM050300 03008KT P6SM SCT020 BKN100
     FM051400 01015KT P6SM -SHRA VCTS SCT035 BKN060CB=



000
FTUS43 KBIS 042325
TAFJMS
TAF
KJMS 042325Z 0500/0524 19006KT P6SM SCT050 BKN100
     FM051500 31012KT P6SM VCTS SCT060 BKN100CB=



000
FTUS43 KBIS 042325
TAFMOT
TAF
KMOT 042325Z 0500/0524 17011KT 4SM TSRA BKN050CB OVC100
     FM050200 35009KT P6SM SCT015 OVC100
     FM051300 35013KT P6SM -SHRA VCTS SCT035 BKN060CB
     FM052000 34012KT P6SM SCT060=



000
FTUS43 KBIS 042325
TAFISN
TAF
KISN 042325Z 0500/0524 31014KT P6SM BKN100
     FM051400 35015KT P6SM -SHRA VCTS SCT025 BKN040 OVC070CB
     FM052100 35013KT P6SM VCTS SCT040 BKN080CB=



000
FTUS43 KBIS 042325
TAFDIK
TAF
KDIK 042325Z 0500/0524 20009KT P6SM SCT100
      TEMPO 0500/0502 -TSRA SCT060CB BKN100
     FM050300 03008KT P6SM SCT020 BKN100
     FM051400 01015KT P6SM -SHRA VCTS SCT035 BKN060CB=



000
FTUS43 KBIS 042325
TAFBIS
TAF
KBIS 042325Z 0500/0524 18010KT P6SM SCT050
     FM050200 18009KT P6SM VCTS SCT050CB BKN120
     FM050600 31008KT P6SM BKN120
     FM051400 34015KT P6SM -SHRA VCTS SCT025 OVC070CB=



000
FTUS43 KBIS 042325
TAFJMS
TAF
KJMS 042325Z 0500/0524 19006KT P6SM SCT050 BKN100
     FM051500 31012KT P6SM VCTS SCT060 BKN100CB=



000
FTUS43 KBIS 042325
TAFMOT
TAF
KMOT 042325Z 0500/0524 17011KT 4SM TSRA BKN050CB OVC100
     FM050200 35009KT P6SM SCT015 OVC100
     FM051300 35013KT P6SM -SHRA VCTS SCT035 BKN060CB
     FM052000 34012KT P6SM SCT060=



000
FTUS43 KBIS 042325
TAFISN
TAF
KISN 042325Z 0500/0524 31014KT P6SM BKN100
     FM051400 35015KT P6SM -SHRA VCTS SCT025 BKN040 OVC070CB
     FM052100 35013KT P6SM VCTS SCT040 BKN080CB=



000
FTUS43 KBIS 042252 AAB
TAFMOT
TAF AMD
KMOT 042252Z 0423/0518 12007KT 4SM TSRA BKN050CB OVC100
     FM050200 01010KT P6SM SCT035 OVC100
     FM051200 35013KT P6SM -SHRA VCTS SCT035 BKN060CB=



000
FTUS43 KBIS 042208 AAB
TAFDIK
TAF AMD
KDIK 042208Z 0422/0518 18012KT P6SM SCT100
      TEMPO 0501/0503 -TSRA SCT060CB BKN100
     FM050300 12008KT P6SM SCT050 SCT100
     FM050600 03008KT P6SM SCT020 BKN100
     FM051400 01015KT P6SM -SHRA VCTS SCT035 BKN060CB=



000
FTUS43 KBIS 042058 AAA
TAFMOT
TAF AMD
KMOT 042058Z 0421/0518 16014KT 6SM HZ SCT060 BKN100
     FM042300 12007KT P6SM VCTS BKN050CB OVC100
      TEMPO 0503/0506 -SHRA BKN050 OVC100
     FM050600 01010KT P6SM SCT035 OVC100
     FM051200 35013KT P6SM -SHRA VCTS SCT035 BKN060CB=



000
FTUS43 KBIS 042057 AAA
TAFISN
TAF AMD
KISN 042057Z 0421/0518 20008KT P6SM VCTS SCT060CB SCT100
      TEMPO 0421/0423 VRB20G30KT 2SM +TSRA BKN060CB OVC100
     FM050100 01011KT P6SM BKN100
     FM051400 35015KT P6SM -SHRA VCTS SCT025 BKN040 OVC070CB=



000
FTUS43 KBIS 041800 AAA
TAFDIK
TAF AMD
KDIK 041800Z 0418/0518 17007KT P6SM SKC
     FM042100 18012KT P6SM SCT100
     FM050300 12008KT P6SM SCT050 SCT100
     FM050600 03008KT P6SM SCT020 BKN100
     FM051400 01015KT P6SM -SHRA VCTS SCT035 BKN060CB=



000
FTUS43 KBIS 041759 AAA
TAFBIS
TAF AMD
KBIS 041759Z 0418/0518 15011KT P6SM SKC
     FM042000 18012KT P6SM SCT060
     FM050300 18009KT P6SM VCTS SCT080CB BKN120
     FM050600 18008KT P6SM BKN120
     FM051200 01008KT P6SM VCSH SCT050 OVC100
     FM051700 34015KT P6SM VCTS SCT050 OVC100CB=



000
FTUS43 KBIS 041749
TAFBIS
TAF
KBIS 041749Z 0418/0518 13006KT 4SM HZ SKC
     FM042000 18012KT P6SM SCT060
     FM050300 18009KT P6SM VCTS SCT080CB BKN120
     FM050600 18008KT P6SM BKN120
     FM051200 01008KT P6SM VCSH SCT050 OVC100
     FM051700 34015KT P6SM VCTS SCT050 OVC100CB=



000
FTUS43 KBIS 041749
TAFDIK
TAF
KDIK 041749Z 0418/0518 19009KT 5SM FU SKC
     FM042100 18012KT P6SM SCT100
     FM050300 12008KT P6SM SCT050 SCT100
     FM050600 03008KT P6SM SCT020 BKN100
     FM051400 01015KT P6SM -SHRA VCTS SCT035 BKN060CB=



000
FTUS43 KBIS 041749
TAFMOT
TAF
KMOT 041749Z 0418/0518 18006KT 5SM HZ SCT100
     FM042200 15008KT P6SM VCTS SCT060CB BKN100
     FM050300 12007KT P6SM VCTS BKN050CB OVC100
      TEMPO 0503/0506 -SHRA BKN050 OVC100
     FM050600 01010KT P6SM SCT035 OVC100
     FM051200 35013KT P6SM -SHRA VCTS SCT035 BKN060CB=



000
FTUS43 KBIS 041749
TAFISN
TAF
KISN 041749Z 0418/0518 16006KT P6SM SCT080
     FM042100 20008KT P6SM VCTS SCT060CB SCT100
      TEMPO 0422/0501 -SHRA BKN060 OVC100
     FM050100 01011KT P6SM BKN100
     FM051400 35015KT P6SM -SHRA VCTS SCT025 BKN040 OVC070CB=



000
FTUS43 KBIS 041749
TAFJMS
TAF
KJMS 041749Z 0418/0518 17010KT P6SM SKC
     FM050600 19006KT P6SM SCT050 BKN100
     FM051500 27007KT P6SM VCTS SCT060 BKN100CB=



000
FTUS43 KBIS 041411 AAA
TAFJMS
TAF AMD
KJMS 041411Z 0414/0512 19006KT 2SM FU FEW040
     FM041600 18009KT 5SM FU SCT040
     FM042000 18015KT P6SM SCT050 SCT080
     FM050600 18010KT P6SM SCT035 SCT050 OVC080=



000
FTUS43 KBIS 041342 AAA
TAFBIS
TAF AMD
KBIS 041342Z 0414/0512 12008KT 2SM FU SKC
     FM041600 16010KT 5SM FU SKC
     FM041700 17012KT P6SM SKC
     FM050000 18015KT P6SM SCT060
     FM050300 18009KT P6SM SCT050 SCT100
     FM050900 36012KT P6SM BKN035 OVC050=



000
FTUS43 KBIS 041342 AAA
TAFBIS
TAF AMD
KBIS 041342Z 0414/0512 12008KT 2SM FU SKC
     FM041600 16010KT 5SM FU SKC
     FM041700 17012KT P6SM SKC
     FM050000 18015KT P6SM SCT060
     FM050300 18009KT P6SM SCT050 SCT100
     FM050900 36012KT P6SM BKN035 OVC050=



000
FTUS43 KBIS 041128
TAFISN
TAF
KISN 041128Z 0412/0512 18006KT 5SM FU SCT070
     FM041600 18006KT P6SM SKC
     FM042200 20008KT P6SM VCTS SCT060CB SCT100
     FM050000 30012KT P6SM VCTS BKN050CB OVC100
     FM050300 36014KT P6SM VCTS SCT025 BKN040CB OVC070
     FM050600 35011KT P6SM SCT025 BKN035 OVC070=



000
FTUS43 KBIS 041128
TAFBIS
TAF
KBIS 041128Z 0412/0512 13004KT 1SM FU VV035
      TEMPO 0412/0414 3SM BR FU SCT035
     FM041600 16015KT P6SM SKC
     FM050000 18015KT P6SM SCT060
     FM050300 18009KT P6SM SCT050 SCT100
     FM050900 36012KT P6SM BKN035 OVC050=



000
FTUS43 KBIS 041128
TAFJMS
TAF
KJMS 041128Z 0412/0512 16004KT 1SM FU VV035
      TEMPO 0412/0414 3SM BR FU VV035
     FM041600 18009KT 5SM FU SCT040
     FM042000 18015KT P6SM SCT050 SCT080
     FM050600 18010KT P6SM SCT035 SCT050 OVC080=



000
FTUS43 KBIS 041128
TAFDIK
TAF
KDIK 041128Z 0412/0512 17007KT 3SM FU SCT070
     FM041600 17013KT P6SM SKC
     FM042100 20014KT P6SM SKC
     FM050300 18010KT P6SM SCT050 SCT100
     FM050600 36012KT P6SM SCT020 BKN035 OVC050=



000
FTUS43 KBIS 041128
TAFMOT
TAF
KMOT 041128Z 0412/0512 14004KT 3SM FU VV035
     FM041600 17014KT P6SM SCT070
     FM050000 20016KT P6SM VCTS SCT060CB SCT100
     FM050300 22016KT P6SM VCTS BKN050CB OVC100
     FM050800 36014KT P6SM BKN025 OVC035=



000
FTUS43 KBIS 041128
TAFDIK
TAF
KDIK 041128Z 0412/0512 17007KT 3SM FU SCT070
     FM041600 17013KT P6SM SKC
     FM042100 20014KT P6SM SKC
     FM050300 18010KT P6SM SCT050 SCT100
     FM050600 36012KT P6SM SCT020 BKN035 OVC050=



000
FTUS43 KBIS 041128
TAFJMS
TAF
KJMS 041128Z 0412/0512 16004KT 1SM FU VV035
      TEMPO 0412/0414 3SM BR FU VV035
     FM041600 18009KT 5SM FU SCT040
     FM042000 18015KT P6SM SCT050 SCT080
     FM050600 18010KT P6SM SCT035 SCT050 OVC080=



000
FTUS43 KBIS 041128
TAFMOT
TAF
KMOT 041128Z 0412/0512 14004KT 3SM FU VV035
     FM041600 17014KT P6SM SCT070
     FM050000 20016KT P6SM VCTS SCT060CB SCT100
     FM050300 22016KT P6SM VCTS BKN050CB OVC100
     FM050800 36014KT P6SM BKN025 OVC035=



000
FTUS43 KBIS 041128
TAFBIS
TAF
KBIS 041128Z 0412/0512 13004KT 1SM FU VV035
      TEMPO 0412/0414 3SM BR FU SCT035
     FM041600 16015KT P6SM SKC
     FM050000 18015KT P6SM SCT060
     FM050300 18009KT P6SM SCT050 SCT100
     FM050900 36012KT P6SM BKN035 OVC050=



000
FTUS43 KBIS 041128
TAFISN
TAF
KISN 041128Z 0412/0512 18006KT 5SM FU SCT070
     FM041600 18006KT P6SM SKC
     FM042200 20008KT P6SM VCTS SCT060CB SCT100
     FM050000 30012KT P6SM VCTS BKN050CB OVC100
     FM050300 36014KT P6SM VCTS SCT025 BKN040CB OVC070
     FM050600 35011KT P6SM SCT025 BKN035 OVC070=



000
FTUS43 KBIS 040534
TAFBIS
TAF
KBIS 040534Z 0406/0506 13004KT 3SM FU VV035
     FM041600 16015KT P6SM FEW070
     FM050000 18015KT P6SM SCT060
     FM050300 18009KT P6SM SCT050 SCT100=



000
FTUS43 KBIS 040534
TAFDIK
TAF
KDIK 040534Z 0406/0506 13008KT 4SM FU SKC
     FM041600 17012KT P6SM SCT070
     FM042100 20014KT P6SM SKC
     FM050300 18010KT P6SM SCT050 SCT100=



000
FTUS43 KBIS 040534
TAFMOT
TAF
KMOT 040534Z 0406/0506 14004KT 3SM FU VV035
     FM041600 17014KT P6SM SCT070
     FM050000 20016KT P6SM VCTS SCT060CB SCT100
     FM050300 22016KT P6SM VCTS BKN050CB OVC100=



000
FTUS43 KBIS 040534
TAFJMS
TAF
KJMS 040534Z 0406/0506 14004KT 2SM FU VV035
     FM041600 18009KT 5SM FU SCT040
     FM042000 18015KT P6SM SCT050 SCT080=



000
FTUS43 KBIS 040534
TAFDIK
TAF
KDIK 040534Z 0406/0506 13008KT 4SM FU SKC
     FM041600 17012KT P6SM SCT070
     FM042100 20014KT P6SM SKC
     FM050300 18010KT P6SM SCT050 SCT100=



000
FTUS43 KBIS 040534
TAFJMS
TAF
KJMS 040534Z 0406/0506 14004KT 2SM FU VV035
     FM041600 18009KT 5SM FU SCT040
     FM042000 18015KT P6SM SCT050 SCT080=



000
FTUS43 KBIS 040534
TAFMOT
TAF
KMOT 040534Z 0406/0506 14004KT 3SM FU VV035
     FM041600 17014KT P6SM SCT070
     FM050000 20016KT P6SM VCTS SCT060CB SCT100
     FM050300 22016KT P6SM VCTS BKN050CB OVC100=



000
FTUS43 KBIS 040534
TAFISN
TAF
KISN 040534Z 0406/0506 15006KT 6SM FU SCT070
     FM041600 18006KT P6SM SCT070
     FM042200 20008KT P6SM VCTS SCT060CB SCT100
     FM050000 30012KT P6SM VCTS BKN050CB OVC100
     FM050300 36014KT P6SM VCTS SCT025 BKN040CB OVC070=



000
FTUS43 KBIS 040534
TAFISN
TAF
KISN 040534Z 0406/0506 15006KT 6SM FU SCT070
     FM041600 18006KT P6SM SCT070
     FM042200 20008KT P6SM VCTS SCT060CB SCT100
     FM050000 30012KT P6SM VCTS BKN050CB OVC100
     FM050300 36014KT P6SM VCTS SCT025 BKN040CB OVC070=



000
FTUS43 KBIS 040534
TAFBIS
TAF
KBIS 040534Z 0406/0506 13004KT 3SM FU VV035
     FM041600 16015KT P6SM FEW070
     FM050000 18015KT P6SM SCT060
     FM050300 18009KT P6SM SCT050 SCT100=



000
FTUS43 KBIS 032333
TAFBIS
TAF
KBIS 032333Z 0400/0424 VRB03KT 3SM FU VV035
     FM040300 13004KT 4SM FU SCT050
     FM041600 16012KT P6SM SCT060=



000
FTUS43 KBIS 032333
TAFMOT
TAF
KMOT 032333Z 0400/0424 19005KT 2SM FU VV027
     FM040300 16004KT 3SM FU SCT050
     FM041600 16010KT P6SM SCT070=



000
FTUS43 KBIS 032333
TAFJMS
TAF
KJMS 032333Z 0400/0424 11003KT 2SM FU VV028
     FM041600 18009KT 5SM FU SCT040=



000
FTUS43 KBIS 032333
TAFISN
TAF
KISN 032333Z 0400/0424 22004KT P6SM FEW070
     FM040800 15004KT 6SM FU SKC
     FM041600 18006KT P6SM SCT070=



000
FTUS43 KBIS 032333
TAFDIK
TAF
KDIK 032333Z 0400/0424 14009KT P6SM FEW050 SCT100
     FM040300 13007KT 6SM FU SCT050
     FM041600 17010KT P6SM SCT070=



000
FTUS43 KBIS 032201 AAA
TAFMOT
TAF AMD
KMOT 032201Z 0322/0418 20005KT 2SM FU VV027
     FM040100 16004KT 3SM FU SCT050
     FM041600 16010KT P6SM SCT070=



000
FTUS43 KBIS 032200 AAA
TAFJMS
TAF AMD
KJMS 032200Z 0322/0418 00000KT 2SM FU VV025
     FM040100 13004KT 4SM FU SCT050
      TEMPO 0409/0413 2SM FU VV020
     FM041600 18009KT 5SM FU SCT040=



000
FTUS43 KBIS 032159 AAB
TAFDIK
TAF AMD
KDIK 032159Z 0322/0418 13007KT P6SM VCTS FEW050CB BKN090
     FM040100 13007KT 5SM FU SCT050
     FM041600 17010KT P6SM SCT070=



000
FTUS43 KBIS 031927 AAA
TAFDIK
TAF AMD
KDIK 031927Z 0319/0418 16004KT 6SM FU SCT050
     FM040100 13007KT 5SM FU SCT050
     FM041600 17010KT P6SM SCT070=



000
FTUS43 KBIS 031926 AAA
TAFISN
TAF AMD
KISN 031926Z 0319/0418 17006KT P6SM SCT050
     FM040800 15004KT 5SM FU SKC
     FM041600 18006KT P6SM SCT070=



000
FTUS43 KBIS 031730
TAFISN
TAF
KISN 031730Z 0318/0418 15004KT 4SM FU SKC
     FM041600 18006KT P6SM SCT070=



000
FTUS43 KBIS 031730
TAFBIS
TAF
KBIS 031730Z 0318/0418 29003KT 3SM FU SCT035
     FM040100 13004KT 4SM FU SCT050
     FM041600 16012KT P6SM SCT060=



000
FTUS43 KBIS 031730
TAFJMS
TAF
KJMS 031730Z 0318/0418 35006KT 3SM FU SCT030
      TEMPO 0318/0322 1 1/2SM FU VV030
     FM040100 13004KT 4SM FU SCT050
      TEMPO 0409/0413 2SM FU VV020
     FM041600 18009KT 5SM FU SCT040=



000
FTUS43 KBIS 031730
TAFMOT
TAF
KMOT 031730Z 0318/0418 13004KT 3SM FU SCT025
      TEMPO 0318/0321 2SM FU VV025
     FM040100 16004KT 3SM FU SCT050
     FM041600 16010KT P6SM SCT070=



000
FTUS43 KBIS 031730
TAFDIK
TAF
KDIK 031730Z 0318/0418 15004KT 5SM FU SCT050
     FM040100 13007KT 5SM FU SCT050
     FM041600 17010KT P6SM SCT070=



000
FTUS43 KBIS 031730
TAFJMS
TAF
KJMS 031730Z 0318/0418 35006KT 3SM FU SCT030
      TEMPO 0318/0322 1 1/2SM FU VV030
     FM040100 13004KT 4SM FU SCT050
      TEMPO 0409/0413 2SM FU VV020
     FM041600 18009KT 5SM FU SCT040=



000
FTUS43 KBIS 031730
TAFBIS
TAF
KBIS 031730Z 0318/0418 29003KT 3SM FU SCT035
     FM040100 13004KT 4SM FU SCT050
     FM041600 16012KT P6SM SCT060=



000
FTUS43 KBIS 031730
TAFDIK
TAF
KDIK 031730Z 0318/0418 15004KT 5SM FU SCT050
     FM040100 13007KT 5SM FU SCT050
     FM041600 17010KT P6SM SCT070=



000
FTUS43 KBIS 031730
TAFISN
TAF
KISN 031730Z 0318/0418 15004KT 4SM FU SKC
     FM041600 18006KT P6SM SCT070=



000
FTUS43 KBIS 031730
TAFMOT
TAF
KMOT 031730Z 0318/0418 13004KT 3SM FU SCT025
      TEMPO 0318/0321 2SM FU VV025
     FM040100 16004KT 3SM FU SCT050
     FM041600 16010KT P6SM SCT070=



000
FTUS43 KBIS 031608 AAA
TAFJMS
TAF AMD
KJMS 031608Z 0316/0412 34007KT 2SM FU VV030
      TEMPO 0316/0318 1 1/2SM FU VV020
     FM031800 04006KT 3SM FU SCT040
     FM040000 13005KT P6SM BKN050=



000
FTUS43 KBIS 031600 AAB
TAFDIK
TAF AMD
KDIK 031600Z 0316/0412 16004KT 4SM FU SKC
     FM040000 16007KT P6SM BKN070=



000
FTUS43 KBIS 031559 AAA
TAFMOT
TAF AMD
KMOT 031559Z 0316/0412 00000KT 3SM FU VV025
      TEMPO 0316/0318 1 1/2SM FU VV020
     FM031800 17004KT 3SM FU SCT035
     FM040000 15006KT P6SM SCT070=



000
FTUS43 KBIS 031559 AAA
TAFMOT
TAF AMD
KMOT 031559Z 0316/0412 00000KT 3SM FU VV025
      TEMPO 0316/0318 1 1/2SM FU VV020
     FM031800 17004KT 3SM FU SCT035
     FM040000 15006KT P6SM SCT070=



000
FTUS43 KBIS 031544 AAB
TAFISN
TAF AMD
KISN 031544Z 0316/0412 00000KT 4SM FU SKC
     FM040000 15006KT P6SM BKN070=



000
FTUS43 KBIS 031544 AAB
TAFISN
TAF AMD
KISN 031544Z 0316/0412 00000KT 4SM FU SKC
     FM040000 15006KT P6SM BKN070=



000
FTUS43 KBIS 031543 AAB
TAFBIS
TAF AMD
KBIS 031543Z 0316/0412 00000KT 4SM FU SCT050
     FM040000 14006KT P6SM SCT070=



000
FTUS43 KBIS 031441 AAA
TAFDIK
TAF AMD
KDIK 031441Z 0315/0412 21004KT 4SM FU SKC
     FM031600 15005KT P6SM SCT070
     FM040000 16007KT P6SM BKN070=



000
FTUS43 KBIS 031302 AAA
TAFISN
TAF AMD
KISN 031302Z 0313/0412 03003KT 2SM FU VV035
      TEMPO 0313/0316 VRB02KT 6SM FU FEW050
     FM031600 VRB03KT P6SM SCT070
     FM040000 15006KT P6SM BKN070=



000
FTUS43 KBIS 031136
TAFDIK
TAF
KDIK 031136Z 0312/0412 VRB04KT 1SM FU SKC
      TEMPO 0312/0316 5SM FU SKC
     FM031600 15005KT P6SM SCT070
     FM040000 16007KT P6SM BKN070=



000
FTUS43 KBIS 031136
TAFJMS
TAF
KJMS 031136Z 0312/0412 35004KT 2SM FU VV035
      TEMPO 0312/0315 1SM FU VV040
     FM032000 01006KT 5SM FU SCT040
     FM040000 13005KT P6SM BKN050=



000
FTUS43 KBIS 031136
TAFBIS
TAF
KBIS 031136Z 0312/0412 26004KT 2SM FU VV035
      TEMPO 0312/0314 1/2SM FG FU VV035
     FM031700 VRB04KT 5SM FU SKC
     FM040000 14006KT P6SM SCT070=



000
FTUS43 KBIS 031136
TAFMOT
TAF
KMOT 031136Z 0312/0412 25003KT 1SM FU VV025
      TEMPO 0312/0316 5SM FU SCT025
     FM031600 VRB03KT 6SM FU SKC
     FM040000 15006KT P6SM SCT070=



000
FTUS43 KBIS 031136
TAFISN
TAF
KISN 031136Z 0312/0412 VRB03KT 3SM FU VV025
      TEMPO 0312/0316 VRB02KT 6SM FU FEW050
     FM031600 VRB03KT P6SM SCT070
     FM040000 15006KT P6SM BKN070=



000
FTUS43 KBIS 031136
TAFMOT
TAF
KMOT 031136Z 0312/0412 25003KT 1SM FU VV025
      TEMPO 0312/0316 5SM FU SCT025
     FM031600 VRB03KT 6SM FU SKC
     FM040000 15006KT P6SM SCT070=



000
FTUS43 KBIS 031136
TAFDIK
TAF
KDIK 031136Z 0312/0412 VRB04KT 1SM FU SKC
      TEMPO 0312/0316 5SM FU SKC
     FM031600 15005KT P6SM SCT070
     FM040000 16007KT P6SM BKN070=



000
FTUS43 KBIS 031136
TAFISN
TAF
KISN 031136Z 0312/0412 VRB03KT 3SM FU VV025
      TEMPO 0312/0316 VRB02KT 6SM FU FEW050
     FM031600 VRB03KT P6SM SCT070
     FM040000 15006KT P6SM BKN070=



000
FTUS43 KBIS 031136
TAFBIS
TAF
KBIS 031136Z 0312/0412 26004KT 2SM FU VV035
      TEMPO 0312/0314 1/2SM FG FU VV035
     FM031700 VRB04KT 5SM FU SKC
     FM040000 14006KT P6SM SCT070=



000
FTUS43 KBIS 031136
TAFJMS
TAF
KJMS 031136Z 0312/0412 35004KT 2SM FU VV035
      TEMPO 0312/0315 1SM FU VV040
     FM032000 01006KT 5SM FU SCT040
     FM040000 13005KT P6SM BKN050=



000
FTUS43 KBIS 031053 AAB
TAFBIS
TAF AMD
KBIS 031053Z 0311/0406 VRB03KT 2SM FU VV035
      TEMPO 0311/0313 1/2SM FG FU
     FM031500 VRB04KT 5SM FU SKC
     FM040000 14006KT P6SM SCT070=



000
FTUS43 KBIS 030704 AAA
TAFJMS
TAF AMD
KJMS 030704Z 0307/0406 27005KT 2SM FU VV040
     FM031400 35006KT 3SM FU SKC
     FM031900 01006KT 5SM FU SCT040
     FM040000 13005KT P6SM BKN050=



000
FTUS43 KBIS 030704 AAA
TAFJMS
TAF AMD
KJMS 030704Z 0307/0406 27005KT 2SM FU VV040
     FM031400 35006KT 3SM FU SKC
     FM031900 01006KT 5SM FU SCT040
     FM040000 13005KT P6SM BKN050=



000
FTUS43 KBIS 030531
TAFMOT
TAF
KMOT 030531Z 0306/0406 27005KT 3SM FU VV045
     FM031500 VRB03KT 4SM FU SKC
     FM040000 15006KT P6SM SCT070=



000
FTUS43 KBIS 030531
TAFDIK
TAF
KDIK 030531Z 0306/0406 VRB04KT 4SM FU SKC
     FM031800 15005KT P6SM SCT070
     FM040000 16007KT P6SM BKN070=



000
FTUS43 KBIS 030531
TAFJMS
TAF
KJMS 030531Z 0306/0406 27005KT 5SM FU VV040
     FM031400 35006KT 4SM FU SKC
     FM031900 01006KT 5SM FU SCT040
     FM040000 13005KT P6SM BKN050=



000
FTUS43 KBIS 030531
TAFBIS
TAF
KBIS 030531Z 0306/0406 VRB03KT 2SM FU VV035
     FM031500 VRB04KT 5SM FU SKC
     FM040000 14006KT P6SM SCT070=



000
FTUS43 KBIS 030531
TAFISN
TAF
KISN 030531Z 0306/0406 02005KT 6SM FU SKC
     FM031200 VRB03KT 6SM FU SKC
     FM040000 15006KT P6SM BKN070=



000
FTUS43 KBIS 030348 AAA
TAFDIK
TAF AMD
KDIK 030348Z 0304/0324 03004KT 5SM HZ SKC
     FM031800 24006KT P6SM SCT150=



000
FTUS43 KBIS 030239 AAA
TAFJMS
TAF AMD
KJMS 030239Z 0303/0324 18004KT P6SM SKC
     FM030600 35004KT 4SM FU SKC=



000
FTUS43 KBIS 030239 AAA
TAFJMS
TAF AMD
KJMS 030239Z 0303/0324 18004KT P6SM SKC
     FM030600 35004KT 4SM FU SKC=



000
FTUS43 KBIS 030238 AAA
TAFBIS
TAF AMD
KBIS 030238Z 0303/0324 33006KT 2SM FU VV032
     FM031400 27004KT 5SM FU SKC=



000
FTUS43 KBIS 030238 AAA
TAFBIS
TAF AMD
KBIS 030238Z 0303/0324 33006KT 2SM FU VV032
     FM031400 27004KT 5SM FU SKC=



000
FTUS43 KBIS 022333
TAFISN
TAF
KISN 022333Z 0300/0324 33010KT P6SM SCT060
     FM030300 35005KT 6SM FU SKC=



000
FTUS43 KBIS 022333
TAFDIK
TAF
KDIK 022333Z 0300/0324 35009KT 6SM FU SKC=



000
FTUS43 KBIS 022333
TAFBIS
TAF
KBIS 022333Z 0300/0324 31007KT 3SM FU SCT045
     FM031400 27004KT 5SM FU SKC=



000
FTUS43 KBIS 022333
TAFMOT
TAF
KMOT 022333Z 0300/0324 31009KT 2SM FU SCT040
     FM030200 34007KT 4SM FU SKC=



000
FTUS43 KBIS 022333
TAFJMS
TAF
KJMS 022333Z 0300/0324 18006KT P6SM VCTS SCT050CB
     FM030200 35004KT 4SM FU SKC=



000
FTUS43 KBIS 022333
TAFISN
TAF
KISN 022333Z 0300/0324 33010KT P6SM SCT060
     FM030300 35005KT 6SM FU SKC=



000
FTUS43 KBIS 022333
TAFMOT
TAF
KMOT 022333Z 0300/0324 31009KT 2SM FU SCT040
     FM030200 34007KT 4SM FU SKC=



000
FTUS43 KBIS 022333
TAFDIK
TAF
KDIK 022333Z 0300/0324 35009KT 6SM FU SKC=



000
FTUS43 KBIS 022333
TAFBIS
TAF
KBIS 022333Z 0300/0324 31007KT 3SM FU SCT045
     FM031400 27004KT 5SM FU SKC=



000
FTUS43 KBIS 022333
TAFJMS
TAF
KJMS 022333Z 0300/0324 18006KT P6SM VCTS SCT050CB
     FM030200 35004KT 4SM FU SKC=



    US Dept of Commerce
    National Oceanic and Atmospheric Administration
    National Weather Service
    1325 East West Highway
    Silver Spring, MD 20910
    Page Author: NWS Internet Services Team
Disclaimer
Information Quality
Credits
Glossary
Privacy Policy
Freedom of Information Act (FOIA)
About Us
Career Opportunities